Time;durP1;ratioP1;P1;durP2;ratioP2;P2;SDS_P1;SDS_P2;PMS_P1;PMS_P2;Temp;Humidity;BMP_temperature;BMP_pressure;BME280_temperature;BME280_humidity;BME280_pressure;Samples;Min_cycle;Max_cycle;Signal;HPM_P1;HPM_P2
2023/05/31 00:01:02;;;;;;;13.93;10.38;;;;;;;18.23;100.00;100089.53;5005601;28;20022;-18
2023/05/31 00:03:28;;;;;;;13.52;10.48;;;;;;;18.37;100.00;100096.00;5005686;28;20034;-19
2023/05/31 00:05:53;;;;;;;14.07;10.18;;;;;;;18.45;100.00;100087.38;5005828;28;20037;-18
2023/05/31 00:08:19;;;;;;;16.50;10.60;;;;;;;18.38;100.00;100091.41;5005898;28;20757;-18
2023/05/31 00:10:44;;;;;;;13.70;10.05;;;;;;;18.38;100.00;100094.91;5005662;28;20037;-18
2023/05/31 00:13:10;;;;;;;13.85;9.98;;;;;;;18.36;100.00;100105.16;5005869;28;20085;-19
2023/05/31 00:15:35;;;;;;;15.27;10.15;;;;;;;18.37;100.00;100098.69;5006267;28;20040;-18
2023/05/31 00:18:01;;;;;;;16.58;10.15;;;;;;;18.24;100.00;100096.53;5005895;28;20030;-18
2023/05/31 00:20:26;;;;;;;18.92;10.30;;;;;;;18.15;100.00;100100.84;5006361;28;20026;-18
2023/05/31 00:22:52;;;;;;;16.35;10.52;;;;;;;17.91;100.00;100103.22;5005226;28;20026;-19
2023/05/31 00:25:17;;;;;;;17.65;10.15;;;;;;;18.14;100.00;100102.72;5006009;28;20034;-19
2023/05/31 00:27:42;;;;;;;14.63;10.38;;;;;;;18.40;100.00;100098.16;5005673;28;20088;-20
2023/05/31 00:30:09;;;;;;;16.30;9.93;;;;;;;18.36;100.00;100102.47;5006140;28;20042;-19
2023/05/31 00:32:34;;;;;;;19.00;10.43;;;;;;;18.28;100.00;100100.31;5005589;28;20018;-20
2023/05/31 00:35:00;;;;;;;16.73;10.18;;;;;;;17.92;100.00;100100.28;5005942;28;20038;-18
2023/05/31 00:37:26;;;;;;;13.80;9.63;;;;;;;18.01;100.00;100093.25;5005908;28;20492;-18
2023/05/31 00:39:51;;;;;;;17.30;9.65;;;;;;;18.04;100.00;100102.69;5006227;28;20409;-18
2023/05/31 00:42:16;;;;;;;15.98;9.73;;;;;;;18.10;100.00;100106.22;5017521;28;20033;-18
2023/05/31 00:44:42;;;;;;;16.98;10.18;;;;;;;17.96;100.00;100089.72;5011951;28;20025;-19
2023/05/31 00:47:08;;;;;;;13.70;10.02;;;;;;;18.24;100.00;100097.31;5027359;28;20038;-18
2023/05/31 00:49:34;;;;;;;17.80;9.73;;;;;;;18.40;100.00;100106.25;5019077;28;20412;-18
2023/05/31 00:51:59;;;;;;;15.55;9.48;;;;;;;18.23;100.00;100095.72;5028320;28;20026;-20
2023/05/31 00:54:25;;;;;;;12.25;8.82;;;;;;;18.14;100.00;100102.72;5018659;28;20048;-18
2023/05/31 00:56:51;;;;;;;16.58;8.68;;;;;;;17.86;100.00;100106.72;5028900;28;20030;-20
2023/05/31 00:59:17;;;;;;;14.70;8.60;;;;;;;17.78;100.00;100104.53;5017433;28;20026;-18
2023/05/31 01:01:43;;;;;;;12.73;9.02;;;;;;;18.13;100.00;100111.09;5029074;28;20807;-18
2023/05/31 01:04:08;;;;;;;15.70;9.73;;;;;;;18.11;100.00;100107.84;5016874;28;20041;-18
2023/05/31 01:06:34;;;;;;;14.55;9.10;;;;;;;18.07;100.00;100105.69;5025707;28;20037;-17
2023/05/31 01:09:04;;;;;;;15.70;9.23;;;;;;;18.20;100.00;100111.63;5018326;28;20064;-17
2023/05/31 01:11:51;;;;;;;15.13;9.32;;;;;;;17.81;100.00;100104.78;5028982;28;20029;-18
2023/05/31 01:14:27;;;;;;;15.18;9.30;;;;;;;17.68;100.00;100105.31;5016962;28;20619;-18
2023/05/31 01:16:57;;;;;;;12.32;9.00;;;;;;;17.56;100.00;100086.66;5029269;28;20045;-18
2023/05/31 01:19:40;;;;;;;15.02;9.77;;;;;;;17.80;100.00;100089.69;5020360;28;20029;-19
2023/05/31 01:22:14;;;;;;;13.35;9.25;;;;;;;17.93;100.00;100114.56;5023934;28;20049;-20
2023/05/31 01:24:57;;;;;;;14.18;9.45;;;;;;;17.91;100.00;100120.22;5017805;28;20431;-17
2023/05/31 01:27:23;;;;;;;14.63;9.40;;;;;;;17.86;100.00;100118.31;5027269;28;20025;-20
2023/05/31 01:29:50;;;;;;;14.88;10.35;;;;;;;17.80;100.00;100118.56;5018178;28;20124;-18
2023/05/31 01:32:16;;;;;;;15.00;9.93;;;;;;;17.63;100.00;100118.75;5027238;28;20171;-19
2023/05/31 01:34:45;;;;;;;13.43;9.88;;;;;;;17.70;100.00;100123.91;5017362;28;20021;-18
2023/05/31 01:37:11;;;;;;;16.05;9.80;;;;;;;17.87;100.00;100122.63;5027602;28;20030;-18
2023/05/31 01:39:37;;;;;;;11.70;9.07;;;;;;;17.91;100.00;100119.41;5017450;28;20025;-18
2023/05/31 01:42:03;;;;;;;14.27;9.77;;;;;;;17.91;100.00;100114.81;5028017;28;20494;-18
2023/05/31 01:44:30;;;;;;;16.40;10.57;;;;;;;17.89;100.00;100116.19;5017763;28;20041;-17
2023/05/31 01:46:55;;;;;;;16.75;10.23;;;;;;;17.83;100.00;100113.44;5026877;28;20124;-26
2023/05/31 01:49:22;;;;;;;15.20;9.95;;;;;;;17.66;100.00;100119.03;5016260;28;20104;-18
2023/05/31 01:51:49;;;;;;;13.82;9.70;;;;;;;17.78;100.00;100115.31;5028153;28;20029;-18
2023/05/31 01:54:15;;;;;;;18.17;9.38;;;;;;;17.93;100.00;100112.66;5016217;28;20151;-18
2023/05/31 01:56:41;;;;;;;17.60;10.15;;;;;;;17.85;100.00;100115.88;5027400;28;20443;-18
2023/05/31 01:59:08;;;;;;;12.63;9.60;;;;;;;17.76;100.00;100114.78;5016814;28;20034;-17
2023/05/31 02:01:35;;;;;;;13.77;9.48;;;;;;;17.77;100.00;100113.69;5027419;28;20439;-18
2023/05/31 02:04:01;;;;;;;15.63;10.05;;;;;;;17.87;100.00;100102.94;5020186;28;20030;-17
2023/05/31 02:06:27;;;;;;;15.00;9.68;;;;;;;17.93;100.00;100118.06;5023907;28;20033;-18
2023/05/31 02:08:53;;;;;;;14.93;9.23;;;;;;;18.02;100.00;100124.56;5021274;28;20034;-17
2023/05/31 02:11:19;;;;;;;14.30;9.73;;;;;;;17.94;100.00;100108.91;5022703;28;20026;-19
2023/05/31 02:13:44;;;;;;;14.93;9.70;;;;;;;18.00;100.00;100115.94;5022169;28;20175;-19
2023/05/31 02:16:10;;;;;;;15.35;8.57;;;;;;;17.96;100.00;100114.00;5009177;28;20124;-19
2023/05/31 02:18:35;;;;;;;19.33;10.30;;;;;;;17.92;100.00;100116.47;4999803;28;20040;-19
2023/05/31 02:21:01;;;;;;;14.40;8.70;;;;;;;17.76;100.00;100128.25;5019855;28;20518;-20
2023/05/31 02:23:26;;;;;;;13.07;8.68;;;;;;;17.85;100.00;100126.69;5024082;28;20419;-18
2023/05/31 02:25:53;;;;;;;13.70;9.45;;;;;;;17.92;100.00;100127.25;5027426;28;20029;-18
2023/05/31 02:28:18;;;;;;;16.30;9.52;;;;;;;17.94;100.00;100121.56;5013682;28;20068;-18
2023/05/31 02:30:57;;;;;;;12.48;8.75;;;;;;;18.00;100.00;100123.19;5018998;28;20044;-17
2023/05/31 02:33:23;;;;;;;14.60;9.32;;;;;;;17.88;100.00;100120.78;5010290;28;20038;-19
2023/05/31 02:35:50;;;;;;;15.55;10.02;;;;;;;17.73;100.00;100123.38;5013909;28;20022;-18
2023/05/31 02:38:15;;;;;;;15.68;9.57;;;;;;;17.78;100.00;100126.09;5015630;28;20037;-18
2023/05/31 02:40:41;;;;;;;15.35;9.32;;;;;;;17.76;100.00;100133.66;5025726;28;20032;-18
2023/05/31 02:43:06;;;;;;;16.25;9.50;;;;;;;17.77;100.00;100141.44;5024978;28;20018;-19
2023/05/31 02:45:31;;;;;;;14.68;9.23;;;;;;;17.75;100.00;100137.41;5018159;28;20068;-20
2023/05/31 02:47:57;;;;;;;16.45;9.50;;;;;;;17.65;100.00;100144.41;5012908;28;20108;-22
2023/05/31 02:50:22;;;;;;;15.93;9.98;;;;;;;17.86;100.00;100139.09;5020437;28;20116;-18
2023/05/31 02:52:48;;;;;;;16.80;10.90;;;;;;;17.66;100.00;100139.81;5013879;28;20061;-21
2023/05/31 02:55:13;;;;;;;15.50;10.35;;;;;;;17.49;100.00;100145.41;5013605;28;20475;-19
2023/05/31 02:57:38;;;;;;;14.13;10.27;;;;;;;17.45;100.00;100138.91;5026803;28;20025;-18
2023/05/31 03:00:11;;;;;;;14.85;11.45;;;;;;;17.45;100.00;100138.91;5020631;28;20040;-18
2023/05/31 03:02:40;;;;;;;16.98;10.75;;;;;;;17.63;100.00;100141.16;5008391;28;20115;-20
2023/05/31 03:05:06;;;;;;;15.13;9.93;;;;;;;17.64;100.00;100145.47;5012356;28;20060;-18
2023/05/31 03:07:36;;;;;;;14.77;10.57;;;;;;;17.53;100.00;100145.69;5024394;28;20064;-18
2023/05/31 03:10:04;;;;;;;18.25;10.10;;;;;;;17.60;100.00;100152.47;5018271;28;20087;-18
2023/05/31 03:12:29;;;;;;;;;;;;;;;17.57;100.00;100155.69;5023536;28;20030;-17
2023/05/31 03:14:54;;;;;;;15.32;9.82;;;;;;;17.72;100.00;100154.13;5022565;28;19923;-19
2023/05/31 03:17:20;;;;;;;18.92;11.05;;;;;;;17.45;100.00;100149.72;5018222;28;20033;-17
2023/05/31 03:19:45;;;;;;;17.83;10.98;;;;;;;17.55;100.00;100154.31;5021067;28;20076;-18
2023/05/31 03:22:11;;;;;;;16.75;11.18;;;;;;;17.53;100.00;100157.28;5020105;28;20056;-18
2023/05/31 03:24:36;;;;;;;14.48;10.10;;;;;;;17.47;100.00;100158.34;5022344;28;20117;-18
2023/05/31 03:27:02;;;;;;;12.93;9.13;;;;;;;17.53;100.00;100160.00;5018666;28;20033;-20
2023/05/31 03:29:29;;;;;;;15.43;10.30;;;;;;;17.56;100.00;100139.78;5023214;28;20033;-21
2023/05/31 03:31:55;;;;;;;15.85;10.30;;;;;;;17.78;100.00;100169.25;5019683;28;20026;-18
2023/05/31 03:34:22;;;;;;;18.83;9.15;;;;;;;17.77;100.00;100170.31;5021595;28;20060;-18
2023/05/31 03:36:48;;;;;;;15.43;10.07;;;;;;;17.84;100.00;100168.22;5017999;28;20034;-18
2023/05/31 03:39:13;;;;;;;13.57;8.95;;;;;;;17.85;100.00;100170.66;5022969;28;20038;-18
2023/05/31 03:41:38;;;;;;;16.27;9.15;;;;;;;17.62;100.00;100166.50;5008636;28;20096;-18
2023/05/31 03:44:04;;;;;;;12.25;8.70;;;;;;;17.52;100.00;100155.66;5006061;28;20057;-18
2023/05/31 03:46:30;;;;;;;16.83;8.85;;;;;;;17.65;100.00;100170.53;4998691;28;20518;-18
2023/05/31 03:48:55;;;;;;;15.07;9.80;;;;;;;17.47;100.00;100169.13;5006373;28;20890;-18
2023/05/31 03:51:21;;;;;;;15.68;9.35;;;;;;;17.62;100.00;100171.88;5006099;28;20062;-21
2023/05/31 03:53:46;;;;;;;14.23;8.63;;;;;;;17.48;100.00;100176.13;5005926;28;20017;-17
2023/05/31 03:56:11;;;;;;;11.18;8.55;;;;;;;17.45;100.00;100176.66;5006538;28;20030;-18
2023/05/31 03:58:37;;;;;;;12.70;9.23;;;;;;;17.50;100.00;100171.28;5005559;28;20092;-18
2023/05/31 04:01:02;;;;;;;12.75;8.60;;;;;;;17.62;100.00;100177.28;5006482;28;20044;-18
2023/05/31 04:03:28;;;;;;;10.82;8.23;;;;;;;17.58;100.00;100181.56;5006392;28;20025;-18
2023/05/31 04:05:54;;;;;;;12.48;8.27;;;;;;;17.57;100.00;100174.56;5005937;28;20026;-18
2023/05/31 04:08:19;;;;;;;12.38;7.28;;;;;;;17.78;100.00;100182.75;5006408;28;20032;-18
2023/05/31 04:10:45;;;;;;;12.10;7.38;;;;;;;17.88;100.00;100193.59;5005749;28;20034;-17
2023/05/31 04:13:10;;;;;;;12.48;7.88;;;;;;;17.89;100.00;100189.81;5005959;28;20042;-18
2023/05/31 04:15:36;;;;;;;13.13;7.50;;;;;;;17.97;100.00;100188.50;5005865;28;20034;-19
2023/05/31 04:18:01;;;;;;;11.57;8.00;;;;;;;18.06;100.00;100197.69;5006678;28;20394;-18
2023/05/31 04:20:27;;;;;;;13.75;8.30;;;;;;;17.76;100.00;100198.38;5007003;28;20121;-20
2023/05/31 04:22:53;;;;;;;13.20;8.63;;;;;;;17.74;100.00;100185.16;5010453;28;20046;-17
2023/05/31 04:25:19;;;;;;;10.98;7.32;;;;;;;17.85;100.00;100196.81;5009601;28;20033;-17
2023/05/31 04:27:45;;;;;;;11.43;7.65;;;;;;;17.92;100.00;100189.31;5009796;28;20077;-18
2023/05/31 04:30:12;;;;;;;14.10;8.02;;;;;;;18.15;100.00;100198.81;5009596;28;20022;-18
2023/05/31 04:32:37;;;;;;;9.35;7.20;;;;;;;18.01;100.00;100201.19;5010081;28;20032;-18
2023/05/31 04:35:05;;;;;;;17.95;8.05;;;;;;;17.98;100.00;100188.25;5009472;28;20509;-18
2023/05/31 04:37:30;;;;;;;10.65;7.22;;;;;;;18.13;100.00;100198.28;5010029;28;20073;-18
2023/05/31 04:39:57;;;;;;;9.73;6.72;;;;;;;18.30;100.00;100203.44;5009766;28;20054;-19
2023/05/31 04:42:26;;;;;;;13.57;7.25;;;;;;;18.40;100.00;100198.06;5009638;28;20049;-19
2023/05/31 04:45:00;;;;;;;11.35;6.97;;;;;;;18.39;100.00;100193.75;5009551;28;20061;-18
2023/05/31 04:47:28;;;;;;;13.07;7.63;;;;;;;18.66;100.00;100206.19;5009671;28;20030;-17
2023/05/31 04:49:57;;;;;;;9.10;7.10;;;;;;;18.67;100.00;100199.69;5009644;28;20542;-18
2023/05/31 04:52:26;;;;;;;15.68;7.00;;;;;;;18.81;100.00;100208.91;5009815;28;20084;-18
2023/05/31 04:54:52;;;;;;;11.07;6.88;;;;;;;18.80;100.00;100206.50;5009443;28;20030;-18
2023/05/31 04:57:18;;;;;;;11.07;7.38;;;;;;;18.82;100.00;100209.75;5009625;28;20038;-18
2023/05/31 04:59:43;;;;;;;9.02;6.63;;;;;;;18.84;100.00;100213.78;5009202;28;20026;-18
2023/05/31 05:02:09;;;;;;;11.02;7.10;;;;;;;19.02;100.00;100217.03;5009252;28;20018;-20
2023/05/31 05:04:34;;;;;;;11.70;7.22;;;;;;;19.08;100.00;100213.22;5009344;28;20065;-18
2023/05/31 05:07:00;;;;;;;15.20;7.32;;;;;;;19.03;100.00;100216.75;5009380;28;20118;-23
2023/05/31 05:09:25;;;;;;;12.30;7.57;;;;;;;19.10;100.00;100221.88;5008295;28;20105;-20
2023/05/31 05:11:53;;;;;;;10.63;7.60;;;;;;;19.05;100.00;100221.91;5009044;28;20030;-18
2023/05/31 05:14:18;;;;;;;11.02;8.27;;;;;;;19.27;100.00;100225.13;5009256;28;20041;-17
2023/05/31 05:16:44;;;;;;;10.40;7.88;;;;;;;19.24;100.00;100241.88;5001486;28;20034;-18
2023/05/31 05:19:09;;;;;;;10.93;7.70;;;;;;;19.44;100.00;100237.53;5009237;28;20041;-18
2023/05/31 05:21:35;;;;;;;10.85;7.63;;;;;;;19.63;100.00;100235.03;5008262;28;20033;-17
2023/05/31 05:24:00;;;;;;;12.23;8.93;;;;;;;19.70;100.00;100223.94;5007917;28;20420;-24
2023/05/31 05:26:25;;;;;;;12.50;8.20;;;;;;;19.60;100.00;100227.50;5008551;28;20416;-18
2023/05/31 05:28:51;;;;;;;15.07;8.68;;;;;;;19.63;100.00;100229.63;5008088;28;20073;-18
2023/05/31 05:31:16;;;;;;;12.30;9.10;;;;;;;19.79;100.00;100239.34;5007876;28;20500;-18
2023/05/31 05:33:42;;;;;;;14.15;9.15;;;;;;;19.96;100.00;100236.31;5003580;28;20060;-18
2023/05/31 05:36:07;;;;;;;13.95;9.10;;;;;;;20.21;100.00;100234.59;5008073;28;20041;-18
2023/05/31 05:38:33;;;;;;;12.65;9.30;;;;;;;20.11;100.00;100238.16;5008383;28;20026;-18
2023/05/31 05:40:58;;;;;;;13.15;9.32;;;;;;;20.09;100.00;100247.66;5007607;28;20104;-19
2023/05/31 05:43:24;;;;;;;14.45;10.43;;;;;;;20.41;100.00;100242.59;5008394;28;20032;-18
2023/05/31 05:45:49;;;;;;;13.45;10.35;;;;;;;20.27;100.00;100244.31;5008048;28;20863;-19
2023/05/31 05:48:15;;;;;;;15.80;10.95;;;;;;;19.99;100.00;100243.06;5008001;28;20036;-18
2023/05/31 05:50:40;;;;;;;15.38;11.35;;;;;;;20.05;100.00;100244.69;5008207;28;20080;-17
2023/05/31 05:53:06;;;;;;;15.68;11.48;;;;;;;20.16;100.00;100245.44;5007674;28;20469;-18
2023/05/31 05:55:33;;;;;;;14.20;11.07;;;;;;;19.97;100.00;100237.94;5008067;28;20552;-19
2023/05/31 05:57:59;;;;;;;16.73;11.43;;;;;;;20.10;100.00;100244.63;5008064;28;20044;-17
2023/05/31 06:00:24;;;;;;;16.33;10.80;;;;;;;20.24;100.00;100248.34;5007817;28;20033;-17
2023/05/31 06:02:50;;;;;;;15.70;11.55;;;;;;;20.14;100.00;100261.94;5007453;28;20691;-22
2023/05/31 06:05:15;;;;;;;14.98;10.65;;;;;;;20.36;100.00;100256.16;5008119;28;20034;-18
2023/05/31 06:07:41;;;;;;;14.45;10.77;;;;;;;20.42;100.00;100246.91;5006651;28;20065;-18
2023/05/31 06:10:07;;;;;;;14.98;11.52;;;;;;;20.56;100.00;100252.53;5006815;28;20033;-18
2023/05/31 06:12:33;;;;;;;15.38;11.63;;;;;;;20.80;100.00;100266.22;5007001;28;20030;-18
2023/05/31 06:14:58;;;;;;;15.02;11.43;;;;;;;20.82;100.00;100258.59;5007523;28;20409;-18
2023/05/31 06:17:24;;;;;;;15.15;11.90;;;;;;;21.01;100.00;100263.34;5007748;28;20146;-18
2023/05/31 06:19:49;;;;;;;15.63;11.55;;;;;;;20.85;100.00;100263.44;5007493;28;20084;-18
2023/05/31 06:22:16;;;;;;;14.65;10.85;;;;;;;20.83;100.00;100254.78;5007622;28;20041;-17
2023/05/31 06:24:42;;;;;;;16.77;11.98;;;;;;;21.03;100.00;100258.44;5007461;28;20025;-18
2023/05/31 06:27:07;;;;;;;16.77;12.10;;;;;;;21.24;100.00;100262.59;5007607;28;20030;-19
2023/05/31 06:29:32;;;;;;;20.88;12.82;;;;;;;21.28;100.00;100260.94;5007303;28;20052;-18
2023/05/31 06:31:58;;;;;;;15.75;11.40;;;;;;;21.27;100.00;100262.03;5008071;28;20437;-18
2023/05/31 06:34:23;;;;;;;16.75;11.45;;;;;;;21.42;100.00;100262.97;5007652;28;20087;-18
2023/05/31 06:36:49;;;;;;;16.33;11.98;;;;;;;21.42;100.00;100269.25;5007649;28;20026;-18
2023/05/31 06:39:14;;;;;;;21.02;12.25;;;;;;;21.47;100.00;100268.38;5007408;28;20034;-18
2023/05/31 06:41:40;;;;;;;18.30;12.05;;;;;;;21.40;100.00;100270.59;5017009;28;20045;-18
2023/05/31 06:44:05;;;;;;;16.33;11.50;;;;;;;21.39;100.00;100274.38;5021874;28;20021;-18
2023/05/31 06:46:31;;;;;;;20.00;12.23;;;;;;;21.43;100.00;100267.31;5020875;28;20029;-18
2023/05/31 06:48:56;;;;;;;17.23;11.98;;;;;;;21.38;100.00;100256.50;5023395;28;20128;-18
2023/05/31 06:51:23;;;;;;;15.18;11.82;;;;;;;21.53;100.00;100264.50;5019697;28;20069;-26
2023/05/31 06:53:49;;;;;;;15.48;11.90;;;;;;;21.74;100.00;100267.00;5023866;28;20052;-18
2023/05/31 06:56:15;;;;;;;36.15;13.40;;;;;;;22.00;100.00;100271.03;5013410;28;20033;-17
2023/05/31 06:58:42;;;;;;;25.42;13.13;;;;;;;22.21;100.00;100252.59;5016923;28;20107;-17
2023/05/31 07:01:08;;;;;;;15.18;11.10;;;;;;;22.37;100.00;100266.81;5018416;28;20045;-18
2023/05/31 07:03:33;;;;;;;15.40;11.60;;;;;;;22.66;100.00;100269.38;5021565;28;20546;-17
2023/05/31 07:05:58;;;;;;;16.50;11.07;;;;;;;22.69;100.00;100262.56;5017791;28;20025;-18
2023/05/31 07:08:24;;;;;;;16.08;11.27;;;;;;;22.92;100.00;100271.69;5020715;28;20985;-18
2023/05/31 07:10:49;;;;;;;16.63;9.60;;;;;;;22.42;100.00;100264.03;5018271;28;20458;-18
2023/05/31 07:13:15;;;;;;;12.93;10.07;;;;;;;22.55;100.00;100258.97;5014783;28;20018;-19
2023/05/31 07:15:41;;;;;;;14.02;9.32;;;;;;;22.92;100.00;100268.19;5015180;28;20087;-18
2023/05/31 07:18:06;;;;;;;14.85;9.63;;;;;;;22.85;100.00;100269.38;5014367;28;20017;-19
2023/05/31 07:20:32;;;;;;;13.55;9.82;;;;;;;22.65;100.00;100266.97;5012387;28;20712;-17
2023/05/31 07:22:57;;;;;;;13.40;9.75;;;;;;;23.07;100.00;100262.53;5012299;28;20021;-18
2023/05/31 07:25:24;;;;;;;13.43;9.30;;;;;;;23.02;98.74;100274.28;5013154;28;20779;-18
2023/05/31 07:27:49;;;;;;;15.38;10.45;;;;;;;23.18;98.22;100263.97;5014351;28;20586;-18
2023/05/31 07:30:15;;;;;;;12.45;10.15;;;;;;;23.29;96.11;100269.22;5013412;28;20033;-19
2023/05/31 07:32:40;;;;;;;13.27;10.63;;;;;;;23.32;97.04;100266.72;5012333;28;20096;-17
2023/05/31 07:35:06;;;;;;;12.50;9.40;;;;;;;23.03;95.94;100266.97;5014167;28;20432;-18
2023/05/31 07:37:32;;;;;;;12.43;9.48;;;;;;;23.15;99.69;100261.84;5013316;28;20026;-18
2023/05/31 07:39:58;;;;;;;12.00;9.52;;;;;;;23.34;92.39;100266.44;5015499;28;20330;-19
2023/05/31 07:42:23;;;;;;;12.32;9.30;;;;;;;23.33;94.82;100272.97;4998696;28;20045;-20
2023/05/31 07:44:49;;;;;;;16.30;9.35;;;;;;;23.36;97.90;100258.78;5006404;28;20975;-19
2023/05/31 07:47:15;;;;;;;13.00;10.50;;;;;;;23.56;95.77;100274.72;5006614;28;20457;-18
2023/05/31 07:49:41;;;;;;;13.50;9.75;;;;;;;23.62;95.72;100273.53;5006788;28;20041;-19
2023/05/31 07:52:07;;;;;;;14.43;9.63;;;;;;;23.85;98.50;100262.78;5006436;28;20022;-22
2023/05/31 07:54:33;;;;;;;13.93;10.38;;;;;;;24.28;96.47;100259.69;5006098;28;20592;-18
2023/05/31 07:56:58;;;;;;;12.77;9.65;;;;;;;24.42;88.83;100267.84;5006086;28;20101;-18
2023/05/31 07:59:24;;;;;;;12.52;8.63;;;;;;;24.39;91.12;100260.28;5006141;28;20088;-18
2023/05/31 08:01:49;;;;;;;11.73;8.52;;;;;;;24.25;89.21;100266.56;5006654;28;20034;-20
2023/05/31 08:04:15;;;;;;;11.63;7.72;;;;;;;24.42;86.05;100268.66;5005899;28;20029;-18
2023/05/31 08:06:42;;;;;;;9.77;7.20;;;;;;;24.55;85.74;100263.50;5006572;28;20026;-18
2023/05/31 08:09:08;;;;;;;9.50;7.47;;;;;;;24.91;81.86;100268.09;5006511;28;20064;-20
2023/05/31 08:11:37;;;;;;;10.80;7.82;;;;;;;25.06;83.64;100265.81;5006698;28;20028;-20
2023/05/31 08:14:06;;;;;;;8.82;7.15;;;;;;;24.80;82.65;100265.59;5006313;28;20030;-20
2023/05/31 08:16:32;;;;;;;9.38;6.63;;;;;;;25.03;78.71;100265.63;5006738;28;20018;-18
2023/05/31 08:18:57;;;;;;;10.95;7.28;;;;;;;25.38;75.07;100276.78;5006081;28;20049;-17
2023/05/31 08:21:23;;;;;;;9.30;6.38;;;;;;;25.18;81.58;100270.69;5006841;28;20112;-18
2023/05/31 08:23:48;;;;;;;10.38;6.90;;;;;;;25.43;81.89;100268.44;5005834;28;20034;-18
2023/05/31 08:26:14;;;;;;;10.10;6.78;;;;;;;25.51;74.51;100262.22;5006095;28;20026;-18
2023/05/31 08:28:40;;;;;;;12.07;7.10;;;;;;;25.60;72.93;100274.00;5006206;28;20026;-18
2023/05/31 08:31:06;;;;;;;11.05;8.63;;;;;;;25.90;69.58;100260.63;5006643;28;20030;-18
2023/05/31 08:33:32;;;;;;;9.95;6.00;;;;;;;26.16;68.24;100259.91;5006056;28;20099;-18
2023/05/31 08:36:03;;;;;;;7.47;5.43;;;;;;;26.21;68.09;100260.53;5006313;28;20550;-19
2023/05/31 08:38:30;;;;;;;8.23;5.20;;;;;;;26.12;69.09;100259.72;5005967;28;20558;-18
2023/05/31 08:41:01;;;;;;;10.73;5.78;;;;;;;26.24;66.34;100251.72;5009449;28;20046;-18
2023/05/31 08:43:28;;;;;;;7.22;5.63;;;;;;;26.01;69.40;100244.75;5023850;28;20067;-18
2023/05/31 08:45:55;;;;;;;9.15;5.63;;;;;;;25.92;69.68;100255.66;5012823;28;20080;-19
2023/05/31 08:48:29;;;;;;;8.38;5.57;;;;;;;25.62;65.19;100243.63;5024752;28;20030;-19
2023/05/31 08:50:57;;;;;;;7.50;5.22;;;;;;;26.24;71.53;100242.72;5015021;28;20401;-18
2023/05/31 08:53:26;;;;;;;8.95;5.00;;;;;;;26.43;68.81;100239.66;5024341;28;20088;-18
2023/05/31 08:55:52;;;;;;;7.82;5.20;;;;;;;26.85;62.53;100240.00;5015599;28;20447;-19
2023/05/31 08:58:18;;;;;;;7.97;4.93;;;;;;;26.81;64.55;100234.38;5024728;28;20029;-18
2023/05/31 09:00:45;;;;;;;7.57;5.38;;;;;;;27.02;64.28;100225.47;5014983;28;20025;-17
2023/05/31 09:03:11;;;;;;;9.27;5.80;;;;;;;27.01;66.42;100221.13;5019125;28;20586;-17
2023/05/31 09:05:36;;;;;;;8.63;5.00;;;;;;;27.30;58.98;100222.34;5013994;28;20029;-18
2023/05/31 09:08:02;;;;;;;11.48;4.97;;;;;;;27.08;62.81;100221.44;5015595;28;20026;-18
2023/05/31 09:10:28;;;;;;;7.93;5.35;;;;;;;27.19;60.33;100219.94;5011623;28;20057;-18
2023/05/31 09:12:54;;;;;;;9.07;5.53;;;;;;;27.01;58.40;100204.69;5015614;28;20030;-17
2023/05/31 09:15:22;;;;;;;7.10;5.22;;;;;;;27.49;59.59;100206.34;5010567;28;20531;-18
2023/05/31 09:17:48;;;;;;;6.70;4.93;;;;;;;27.60;56.14;100220.47;5020414;28;20035;-18
2023/05/31 09:20:13;;;;;;;10.63;5.40;;;;;;;27.35;58.56;100205.75;5008233;28;20104;-18
2023/05/31 09:22:39;;;;;;;11.50;5.65;;;;;;;27.39;60.86;100206.69;4990167;28;20405;-20
2023/05/31 09:25:06;;;;;;;8.18;5.28;;;;;;;26.99;62.20;100201.47;4998961;28;20521;-18
2023/05/31 09:27:39;;;;;;;7.97;5.90;;;;;;;27.67;61.94;100209.00;4989438;28;20509;-19
2023/05/31 09:30:10;;;;;;;7.60;4.95;;;;;;;27.81;64.57;100204.88;4989382;28;20088;-18
2023/05/31 09:32:36;;;;;;;8.30;5.10;;;;;;;27.21;57.69;100208.66;4989644;28;20026;-18
2023/05/31 09:35:12;;;;;;;7.53;5.00;;;;;;;27.55;57.54;100212.44;4989405;28;20045;-19
2023/05/31 09:37:46;;;;;;;10.70;4.82;;;;;;;27.34;51.97;100198.66;4989636;28;20121;-23
2023/05/31 09:40:31;;;;;;;6.88;4.53;;;;;;;27.80;52.52;100202.47;4988968;28;20186;-18
2023/05/31 09:42:57;;;;;;;8.55;4.97;;;;;;;27.96;49.72;100203.53;4989364;28;20068;-19
2023/05/31 09:45:23;;;;;;;7.72;4.70;;;;;;;28.30;46.70;100198.94;4989030;28;20113;-18
2023/05/31 09:47:50;;;;;;;11.93;5.10;;;;;;;28.32;50.02;100193.91;4991256;28;20414;-20
2023/05/31 09:50:22;;;;;;;6.93;5.07;;;;;;;28.47;48.65;100188.94;4991978;28;20101;-18
2023/05/31 09:52:51;;;;;;;15.02;7.70;;;;;;;28.65;49.75;100176.69;4989335;28;20037;-18
2023/05/31 09:55:17;;;;;;;9.40;4.88;;;;;;;28.56;51.75;100173.22;4988657;28;20037;-18
2023/05/31 09:57:44;;;;;;;7.93;5.13;;;;;;;28.61;49.32;100175.78;4988962;28;20034;-18
2023/05/31 10:00:18;;;;;;;8.38;4.97;;;;;;;28.64;48.23;100164.09;4988876;28;20441;-19
2023/05/31 10:02:48;;;;;;;6.68;4.85;;;;;;;28.21;49.20;100173.50;4988798;28;20038;-17
2023/05/31 10:05:15;;;;;;;7.70;4.95;;;;;;;28.61;49.30;100176.56;4989699;28;20105;-19
2023/05/31 10:07:42;;;;;;;10.13;5.20;;;;;;;29.06;48.85;100166.72;5007997;28;20030;-19
2023/05/31 10:10:08;;;;;;;7.90;4.88;;;;;;;29.19;46.48;100168.34;5008323;28;20490;-18
2023/05/31 10:13:01;;;;;;;7.22;4.63;;;;;;;28.74;48.15;100157.41;5007888;28;20037;-21
2023/05/31 10:15:27;;;;;;;8.98;5.13;;;;;;;29.11;49.31;100172.00;5002009;28;20052;-18
2023/05/31 10:18:13;;;;;;;7.00;5.05;;;;;;;28.76;41.37;100171.59;5007435;28;20029;-18
2023/05/31 10:20:43;;;;;;;8.50;5.23;;;;;;;28.85;47.04;100170.34;5008150;28;20041;-18
2023/05/31 10:23:20;;;;;;;7.28;4.68;;;;;;;28.84;44.66;100156.97;5007823;28;20065;-18
2023/05/31 10:25:53;;;;;;;7.80;4.60;;;;;;;28.82;42.39;100171.03;4999534;28;20030;-18
2023/05/31 10:28:24;;;;;;;10.68;4.90;;;;;;;28.70;39.67;100160.00;5007742;28;20041;-18
2023/05/31 10:30:51;;;;;;;7.60;4.45;;;;;;;28.92;39.66;100163.50;4999901;28;20037;-18
2023/05/31 10:33:19;;;;;;;9.75;5.40;;;;;;;29.39;38.48;100165.88;5007127;28;20413;-18
2023/05/31 10:35:45;;;;;;;7.25;4.68;;;;;;;29.28;40.93;100167.44;4999261;28;20037;-19
2023/05/31 10:38:12;;;;;;;6.60;4.32;;;;;;;29.44;38.97;100169.19;5007462;28;20037;-18
2023/05/31 10:40:51;;;;;;;11.48;4.78;;;;;;;29.65;36.80;100166.31;5007672;28;20109;-18
2023/05/31 10:43:37;;;;;;;7.63;4.18;;;;;;;29.72;35.87;100167.69;5007320;28;20033;-18
2023/05/31 10:46:09;;;;;;;8.82;5.00;;;;;;;30.02;38.09;100143.47;5000797;28;20057;-18
2023/05/31 10:48:51;;;;;;;7.72;4.60;;;;;;;29.68;37.29;100151.06;5006981;28;20038;-18
2023/05/31 10:51:17;;;;;;;9.43;5.28;;;;;;;29.43;39.74;100147.56;5007635;28;20040;-18
2023/05/31 10:53:48;;;;;;;7.60;5.00;;;;;;;29.44;40.24;100146.38;5007205;28;20416;-18
2023/05/31 10:56:14;;;;;;;7.72;4.63;;;;;;;29.96;40.25;100134.66;5007246;28;20022;-18
2023/05/31 10:58:42;;;;;;;6.70;4.77;;;;;;;30.32;37.00;100121.97;5007033;28;20038;-18
2023/05/31 11:01:15;;;;;;;7.60;4.50;;;;;;;30.71;36.16;100132.41;5007251;28;20343;-19
2023/05/31 11:03:46;;;;;;;7.32;4.90;;;;;;;30.43;38.71;100125.78;5006562;28;20527;-23
2023/05/31 11:06:13;;;;;;;6.22;4.25;;;;;;;30.27;37.70;100130.44;5004883;28;20080;-19
2023/05/31 11:09:16;;;;;;;8.13;4.50;;;;;;;30.69;34.17;100113.50;5007187;28;20455;-18
2023/05/31 11:11:47;;;;;;;7.38;4.70;;;;;;;31.08;37.52;100127.50;5001459;28;20054;-19